sensor_id;sensor_type;location;lat;lon;timestamp;pressure;altitude;pressure_sealevel;temperature;humidity
30598;BME280;17365;48.878;8.334;2023-05-03T00:01:42;100970.28;;;10.73;70.63
30598;BME280;17365;48.878;8.334;2023-05-03T00:04:08;100967.50;;;10.61;71.33
30598;BME280;17365;48.878;8.334;2023-05-03T00:06:33;100966.84;;;10.74;70.63
30598;BME280;17365;48.878;8.334;2023-05-03T00:08:58;100967.84;;;10.28;73.50
30598;BME280;17365;48.878;8.334;2023-05-03T00:11:23;100970.81;;;10.52;72.14
30598;BME280;17365;48.878;8.334;2023-05-03T00:13:48;100964.72;;;10.48;72.23
30598;BME280;17365;48.878;8.334;2023-05-03T00:16:13;100975.09;;;10.47;72.43
30598;BME280;17365;48.878;8.334;2023-05-03T00:18:39;100973.69;;;10.67;71.30
30598;BME280;17365;48.878;8.334;2023-05-03T00:21:04;100970.56;;;10.35;73.38
30598;BME280;17365;48.878;8.334;2023-05-03T00:23:29;100969.59;;;10.30;73.66
30598;BME280;17365;48.878;8.334;2023-05-03T00:25:55;100975.66;;;10.29;73.65
30598;BME280;17365;48.878;8.334;2023-05-03T00:28:21;100973.38;;;9.99;75.88
30598;BME280;17365;48.878;8.334;2023-05-03T00:30:46;100965.16;;;10.22;74.34
30598;BME280;17365;48.878;8.334;2023-05-03T00:33:11;100965.41;;;10.37;73.97
30598;BME280;17365;48.878;8.334;2023-05-03T00:35:37;100961.50;;;10.12;75.12
30598;BME280;17365;48.878;8.334;2023-05-03T00:38:02;100967.69;;;10.20;74.41
30598;BME280;17365;48.878;8.334;2023-05-03T00:40:27;100979.41;;;9.97;76.08
30598;BME280;17365;48.878;8.334;2023-05-03T00:42:52;100974.09;;;9.47;78.82
30598;BME280;17365;48.878;8.334;2023-05-03T00:45:17;100971.63;;;9.97;76.00
30598;BME280;17365;48.878;8.334;2023-05-03T00:47:43;100976.66;;;9.89;77.08
30598;BME280;17365;48.878;8.334;2023-05-03T00:50:08;100965.03;;;9.69;77.74
30598;BME280;17365;48.878;8.334;2023-05-03T00:52:35;100970.63;;;9.90;76.44
30598;BME280;17365;48.878;8.334;2023-05-03T00:55:01;100969.09;;;9.56;77.93
30598;BME280;17365;48.878;8.334;2023-05-03T00:57:26;100969.78;;;9.91;76.24
30598;BME280;17365;48.878;8.334;2023-05-03T00:59:52;100968.78;;;9.84;76.37
30598;BME280;17365;48.878;8.334;2023-05-03T01:02:17;100969.69;;;9.86;77.00
30598;BME280;17365;48.878;8.334;2023-05-03T01:04:43;100960.34;;;9.96;75.81
30598;BME280;17365;48.878;8.334;2023-05-03T01:12:45;100953.78;;;9.68;77.53
30598;BME280;17365;48.878;8.334;2023-05-03T01:15:16;100947.31;;;9.91;76.96
30598;BME280;17365;48.878;8.334;2023-05-03T01:17:47;100944.91;;;10.02;75.85
30598;BME280;17365;48.878;8.334;2023-05-03T01:20:15;100940.56;;;10.00;75.97
30598;BME280;17365;48.878;8.334;2023-05-03T01:25:08;100939.09;;;9.67;78.24
30598;BME280;17365;48.878;8.334;2023-05-03T01:27:34;100935.81;;;9.76;77.79
30598;BME280;17365;48.878;8.334;2023-05-03T01:30:01;100936.47;;;9.64;78.28
30598;BME280;17365;48.878;8.334;2023-05-03T01:35:08;100929.22;;;9.48;79.37
30598;BME280;17365;48.878;8.334;2023-05-03T01:37:36;100933.69;;;9.55;79.31
30598;BME280;17365;48.878;8.334;2023-05-03T01:40:02;100936.03;;;9.43;80.38
30598;BME280;17365;48.878;8.334;2023-05-03T01:42:29;100932.00;;;9.15;81.69
30598;BME280;17365;48.878;8.334;2023-05-03T01:44:54;100933.97;;;9.26;81.40
30598;BME280;17365;48.878;8.334;2023-05-03T01:47:20;100940.34;;;9.00;83.58
30598;BME280;17365;48.878;8.334;2023-05-03T01:49:46;100930.22;;;9.11;82.48
30598;BME280;17365;48.878;8.334;2023-05-03T01:52:12;100928.66;;;9.19;82.16
30598;BME280;17365;48.878;8.334;2023-05-03T01:54:37;100934.81;;;9.25;81.88
30598;BME280;17365;48.878;8.334;2023-05-03T01:57:02;100924.38;;;9.21;82.15
30598;BME280;17365;48.878;8.334;2023-05-03T01:59:28;100923.97;;;9.01;83.85
30598;BME280;17365;48.878;8.334;2023-05-03T02:01:53;100928.28;;;9.02;84.19
30598;BME280;17365;48.878;8.334;2023-05-03T02:04:18;100924.00;;;8.63;85.26
30598;BME280;17365;48.878;8.334;2023-05-03T02:06:43;100924.84;;;9.01;83.35
30598;BME280;17365;48.878;8.334;2023-05-03T02:09:08;100920.25;;;8.88;84.00
30598;BME280;17365;48.878;8.334;2023-05-03T02:11:34;100925.41;;;8.87;84.43
30598;BME280;17365;48.878;8.334;2023-05-03T02:13:59;100923.22;;;8.67;86.42
30598;BME280;17365;48.878;8.334;2023-05-03T02:16:25;100930.56;;;8.87;85.02
30598;BME280;17365;48.878;8.334;2023-05-03T02:18:50;100921.97;;;8.88;84.74
30598;BME280;17365;48.878;8.334;2023-05-03T02:21:17;100920.31;;;8.91;84.32
30598;BME280;17365;48.878;8.334;2023-05-03T02:23:42;100921.66;;;8.74;85.27
30598;BME280;17365;48.878;8.334;2023-05-03T02:26:08;100929.81;;;8.92;84.09
30598;BME280;17365;48.878;8.334;2023-05-03T02:28:33;100926.59;;;9.02;83.45
30598;BME280;17365;48.878;8.334;2023-05-03T02:30:58;100923.91;;;8.98;83.87
30598;BME280;17365;48.878;8.334;2023-05-03T02:33:23;100929.09;;;8.98;83.79
30598;BME280;17365;48.878;8.334;2023-05-03T02:35:49;100925.41;;;8.87;84.89
30598;BME280;17365;48.878;8.334;2023-05-03T02:38:14;100932.63;;;8.62;86.57
30598;BME280;17365;48.878;8.334;2023-05-03T02:40:40;100934.16;;;8.56;86.89
30598;BME280;17365;48.878;8.334;2023-05-03T02:43:05;100932.28;;;8.49;86.97
30598;BME280;17365;48.878;8.334;2023-05-03T02:45:30;100927.19;;;8.52;86.73
30598;BME280;17365;48.878;8.334;2023-05-03T02:47:56;100930.94;;;8.64;85.89
30598;BME280;17365;48.878;8.334;2023-05-03T02:50:21;100934.19;;;8.57;86.60
30598;BME280;17365;48.878;8.334;2023-05-03T02:52:46;100935.59;;;8.43;87.41
30598;BME280;17365;48.878;8.334;2023-05-03T02:55:11;100935.88;;;8.21;89.03
30598;BME280;17365;48.878;8.334;2023-05-03T02:57:36;100936.56;;;8.48;86.89
30598;BME280;17365;48.878;8.334;2023-05-03T03:00:02;100931.88;;;8.33;86.86
30598;BME280;17365;48.878;8.334;2023-05-03T03:02:29;100933.94;;;8.12;89.59
30598;BME280;17365;48.878;8.334;2023-05-03T03:04:54;100938.50;;;8.22;88.66
30598;BME280;17365;48.878;8.334;2023-05-03T03:07:19;100935.50;;;8.38;87.03
30598;BME280;17365;48.878;8.334;2023-05-03T03:09:44;100942.56;;;8.12;88.93
30598;BME280;17365;48.878;8.334;2023-05-03T03:12:10;100940.44;;;7.96;90.50
30598;BME280;17365;48.878;8.334;2023-05-03T03:14:35;100947.59;;;7.73;92.25
30598;BME280;17365;48.878;8.334;2023-05-03T03:17:00;100940.84;;;8.13;89.48
30598;BME280;17365;48.878;8.334;2023-05-03T03:19:27;100945.66;;;7.98;90.28
30598;BME280;17365;48.878;8.334;2023-05-03T03:21:52;100950.00;;;8.00;89.81
30598;BME280;17365;48.878;8.334;2023-05-03T03:24:17;100952.88;;;7.78;91.70
30598;BME280;17365;48.878;8.334;2023-05-03T03:26:42;100954.84;;;7.86;91.46
30598;BME280;17365;48.878;8.334;2023-05-03T03:29:08;100950.84;;;7.66;92.77
30598;BME280;17365;48.878;8.334;2023-05-03T03:31:36;100952.41;;;7.59;93.87
30598;BME280;17365;48.878;8.334;2023-05-03T03:34:01;100960.88;;;7.87;92.19
30598;BME280;17365;48.878;8.334;2023-05-03T03:36:26;100951.59;;;7.94;91.31
30598;BME280;17365;48.878;8.334;2023-05-03T03:38:52;100955.50;;;7.79;91.72
30598;BME280;17365;48.878;8.334;2023-05-03T03:41:17;100952.94;;;7.81;91.58
30598;BME280;17365;48.878;8.334;2023-05-03T03:43:43;100958.69;;;8.02;90.10
30598;BME280;17365;48.878;8.334;2023-05-03T03:46:08;100957.78;;;7.69;91.65
30598;BME280;17365;48.878;8.334;2023-05-03T03:48:33;100949.13;;;7.67;91.30
30598;BME280;17365;48.878;8.334;2023-05-03T03:50:58;100948.72;;;7.83;90.75
30598;BME280;17365;48.878;8.334;2023-05-03T03:53:23;100948.97;;;7.61;91.46
30598;BME280;17365;48.878;8.334;2023-05-03T03:55:49;100945.66;;;7.66;91.73
30598;BME280;17365;48.878;8.334;2023-05-03T03:58:14;100942.47;;;7.75;90.80
30598;BME280;17365;48.878;8.334;2023-05-03T04:00:39;100951.31;;;7.83;91.25
30598;BME280;17365;48.878;8.334;2023-05-03T04:03:04;100945.63;;;7.65;91.75
30598;BME280;17365;48.878;8.334;2023-05-03T04:05:32;100945.06;;;7.75;91.18
30598;BME280;17365;48.878;8.334;2023-05-03T04:07:58;100941.63;;;7.76;91.38
30598;BME280;17365;48.878;8.334;2023-05-03T04:10:23;100941.00;;;7.53;91.96
30598;BME280;17365;48.878;8.334;2023-05-03T04:12:48;100942.72;;;7.22;94.04
30598;BME280;17365;48.878;8.334;2023-05-03T04:15:13;100942.16;;;7.63;92.41
30598;BME280;17365;48.878;8.334;2023-05-03T04:17:38;100941.06;;;7.54;93.13
30598;BME280;17365;48.878;8.334;2023-05-03T04:20:04;100942.63;;;7.48;94.70
30598;BME280;17365;48.878;8.334;2023-05-03T04:22:31;100945.53;;;7.60;94.14
30598;BME280;17365;48.878;8.334;2023-05-03T04:24:56;100941.72;;;7.79;92.87
30598;BME280;17365;48.878;8.334;2023-05-03T04:27:21;100943.44;;;7.80;92.57
30598;BME280;17365;48.878;8.334;2023-05-03T04:29:47;100943.72;;;7.91;92.44
30598;BME280;17365;48.878;8.334;2023-05-03T04:32:13;100930.22;;;8.01;91.14
30598;BME280;17365;48.878;8.334;2023-05-03T04:34:38;100944.66;;;7.59;94.09
30598;BME280;17365;48.878;8.334;2023-05-03T04:37:03;100933.06;;;7.77;93.92
30598;BME280;17365;48.878;8.334;2023-05-03T04:39:29;100940.72;;;7.12;97.80
30598;BME280;17365;48.878;8.334;2023-05-03T04:41:54;100933.63;;;7.67;94.98
30598;BME280;17365;48.878;8.334;2023-05-03T04:44:19;100929.53;;;7.73;94.33
30598;BME280;17365;48.878;8.334;2023-05-03T04:46:45;100932.41;;;7.85;93.44
30598;BME280;17365;48.878;8.334;2023-05-03T04:49:10;100937.44;;;8.14;92.75
30598;BME280;17365;48.878;8.334;2023-05-03T04:51:35;100939.28;;;8.53;90.90
30598;BME280;17365;48.878;8.334;2023-05-03T04:54:00;100934.41;;;8.66;90.82
30598;BME280;17365;48.878;8.334;2023-05-03T04:56:25;100934.22;;;8.96;88.69
30598;BME280;17365;48.878;8.334;2023-05-03T04:58:51;100937.31;;;9.19;87.83
30598;BME280;17365;48.878;8.334;2023-05-03T05:01:16;100933.97;;;9.26;86.27
30598;BME280;17365;48.878;8.334;2023-05-03T05:03:42;100942.03;;;8.98;87.97
30598;BME280;17365;48.878;8.334;2023-05-03T05:06:07;100946.28;;;9.37;85.48
30598;BME280;17365;48.878;8.334;2023-05-03T05:08:33;100944.25;;;9.66;84.54
30598;BME280;17365;48.878;8.334;2023-05-03T05:11:00;100948.81;;;9.35;85.27
30598;BME280;17365;48.878;8.334;2023-05-03T05:13:25;100946.03;;;9.68;83.95
30598;BME280;17365;48.878;8.334;2023-05-03T05:15:50;100945.19;;;9.71;84.37
30598;BME280;17365;48.878;8.334;2023-05-03T05:18:16;100945.34;;;9.78;83.86
30598;BME280;17365;48.878;8.334;2023-05-03T05:20:41;100941.50;;;10.06;81.28
30598;BME280;17365;48.878;8.334;2023-05-03T05:23:06;100937.09;;;9.99;82.92
30598;BME280;17365;48.878;8.334;2023-05-03T05:25:31;100947.47;;;9.99;82.81
30598;BME280;17365;48.878;8.334;2023-05-03T05:27:56;100942.91;;;10.36;81.67
30598;BME280;17365;48.878;8.334;2023-05-03T05:30:22;100941.91;;;10.28;82.14
30598;BME280;17365;48.878;8.334;2023-05-03T05:32:47;100930.97;;;10.45;80.82
30598;BME280;17365;48.878;8.334;2023-05-03T05:35:12;100930.47;;;10.71;80.27
30598;BME280;17365;48.878;8.334;2023-05-03T05:37:40;100936.19;;;11.09;78.36
30598;BME280;17365;48.878;8.334;2023-05-03T05:40:05;100943.22;;;11.18;77.66
30598;BME280;17365;48.878;8.334;2023-05-03T05:42:31;100938.13;;;10.09;81.67
30598;BME280;17365;48.878;8.334;2023-05-03T05:44:56;100931.97;;;10.55;79.58
30598;BME280;17365;48.878;8.334;2023-05-03T05:47:22;100937.16;;;10.54;80.44
30598;BME280;17365;48.878;8.334;2023-05-03T05:49:47;100936.63;;;10.76;79.66
30598;BME280;17365;48.878;8.334;2023-05-03T05:52:12;100920.47;;;10.98;77.13
30598;BME280;17365;48.878;8.334;2023-05-03T05:54:37;100930.47;;;10.71;79.71
30598;BME280;17365;48.878;8.334;2023-05-03T05:57:02;100922.84;;;10.83;77.83
30598;BME280;17365;48.878;8.334;2023-05-03T05:59:28;100927.56;;;10.51;79.13
30598;BME280;17365;48.878;8.334;2023-05-03T06:01:55;100927.06;;;10.75;78.84
30598;BME280;17365;48.878;8.334;2023-05-03T06:04:21;100925.56;;;10.89;78.37
30598;BME280;17365;48.878;8.334;2023-05-03T06:06:46;100929.72;;;10.76;77.96
30598;BME280;17365;48.878;8.334;2023-05-03T06:09:11;100925.28;;;10.71;79.71
30598;BME280;17365;48.878;8.334;2023-05-03T06:11:37;100930.97;;;11.07;78.02
30598;BME280;17365;48.878;8.334;2023-05-03T06:14:02;100927.31;;;10.93;78.55
30598;BME280;17365;48.878;8.334;2023-05-03T06:16:28;100925.75;;;11.04;77.92
30598;BME280;17365;48.878;8.334;2023-05-03T06:18:53;100925.38;;;10.77;79.72
30598;BME280;17365;48.878;8.334;2023-05-03T06:21:18;100926.75;;;11.16;79.16
30598;BME280;17365;48.878;8.334;2023-05-03T06:23:43;100930.41;;;11.31;77.74
30598;BME280;17365;48.878;8.334;2023-05-03T06:26:08;100930.53;;;11.44;77.10
30598;BME280;17365;48.878;8.334;2023-05-03T06:28:34;100932.00;;;11.20;77.70
30598;BME280;17365;48.878;8.334;2023-05-03T06:30:59;100922.78;;;11.45;77.46
30598;BME280;17365;48.878;8.334;2023-05-03T06:33:25;100934.28;;;11.67;76.97
30598;BME280;17365;48.878;8.334;2023-05-03T06:35:50;100931.34;;;11.38;77.54
30598;BME280;17365;48.878;8.334;2023-05-03T06:38:16;100928.03;;;11.51;76.60
30598;BME280;17365;48.878;8.334;2023-05-03T06:40:41;100917.34;;;11.24;78.09
30598;BME280;17365;48.878;8.334;2023-05-03T06:43:08;100915.09;;;11.56;77.26
30598;BME280;17365;48.878;8.334;2023-05-03T06:45:33;100916.03;;;11.62;76.62
30598;BME280;17365;48.878;8.334;2023-05-03T06:47:59;100914.38;;;11.71;76.53
30598;BME280;17365;48.878;8.334;2023-05-03T06:50:24;100926.41;;;11.61;76.96
30598;BME280;17365;48.878;8.334;2023-05-03T06:52:50;100908.19;;;11.58;77.33
30598;BME280;17365;48.878;8.334;2023-05-03T06:55:15;100909.22;;;11.75;76.72
30598;BME280;17365;48.878;8.334;2023-05-03T06:57:41;100895.34;;;11.75;76.84
30598;BME280;17365;48.878;8.334;2023-05-03T07:00:08;100895.78;;;12.20;75.21
30598;BME280;17365;48.878;8.334;2023-05-03T07:02:34;100894.88;;;12.12;74.88
30598;BME280;17365;48.878;8.334;2023-05-03T07:04:59;100892.31;;;12.23;75.26
30598;BME280;17365;48.878;8.334;2023-05-03T07:07:24;100897.59;;;12.34;75.00
30598;BME280;17365;48.878;8.334;2023-05-03T07:09:50;100902.72;;;12.18;76.16
30598;BME280;17365;48.878;8.334;2023-05-03T07:12:15;100895.56;;;11.93;76.38
30598;BME280;17365;48.878;8.334;2023-05-03T07:14:40;100904.63;;;12.42;75.93
30598;BME280;17365;48.878;8.334;2023-05-03T07:17:05;100900.34;;;12.47;74.59
30598;BME280;17365;48.878;8.334;2023-05-03T07:19:31;100912.63;;;12.71;74.40
30598;BME280;17365;48.878;8.334;2023-05-03T07:21:56;100898.81;;;12.91;73.23
30598;BME280;17365;48.878;8.334;2023-05-03T07:24:21;100892.69;;;12.78;73.67
30598;BME280;17365;48.878;8.334;2023-05-03T07:26:48;100892.69;;;12.79;73.47
30598;BME280;17365;48.878;8.334;2023-05-03T07:29:13;100897.81;;;12.67;73.71
30598;BME280;17365;48.878;8.334;2023-05-03T07:31:39;100885.84;;;12.92;73.12
30598;BME280;17365;48.878;8.334;2023-05-03T07:34:04;100890.72;;;12.40;75.35
30598;BME280;17365;48.878;8.334;2023-05-03T07:36:29;100886.72;;;13.00;73.57
30598;BME280;17365;48.878;8.334;2023-05-03T07:38:55;100893.66;;;12.97;73.28
30598;BME280;17365;48.878;8.334;2023-05-03T07:41:21;100890.94;;;12.75;74.41
30598;BME280;17365;48.878;8.334;2023-05-03T07:43:46;100883.19;;;12.86;74.24
30598;BME280;17365;48.878;8.334;2023-05-03T07:46:11;100879.75;;;12.96;72.83
30598;BME280;17365;48.878;8.334;2023-05-03T07:48:36;100872.81;;;12.92;74.89
30598;BME280;17365;48.878;8.334;2023-05-03T07:51:02;100878.84;;;12.80;75.25
30598;BME280;17365;48.878;8.334;2023-05-03T07:53:28;100869.34;;;12.99;75.01
30598;BME280;17365;48.878;8.334;2023-05-03T07:55:53;100876.34;;;13.11;75.13
30598;BME280;17365;48.878;8.334;2023-05-03T07:58:19;100879.06;;;13.32;73.72
30598;BME280;17365;48.878;8.334;2023-05-03T08:00:44;100874.59;;;13.04;74.39
30598;BME280;17365;48.878;8.334;2023-05-03T08:03:10;100880.59;;;12.88;75.72
30598;BME280;17365;48.878;8.334;2023-05-03T08:05:35;100872.94;;;13.24;74.00
30598;BME280;17365;48.878;8.334;2023-05-03T08:08:00;100875.56;;;13.29;73.23
30598;BME280;17365;48.878;8.334;2023-05-03T08:10:27;100883.41;;;13.27;73.65
30598;BME280;17365;48.878;8.334;2023-05-03T08:12:53;100886.94;;;13.49;72.82
30598;BME280;17365;48.878;8.334;2023-05-03T08:15:18;100883.41;;;13.26;73.24
30598;BME280;17365;48.878;8.334;2023-05-03T08:17:44;100888.69;;;13.59;72.66
30598;BME280;17365;48.878;8.334;2023-05-03T08:20:10;100886.09;;;13.79;72.34
30598;BME280;17365;48.878;8.334;2023-05-03T08:22:35;100895.59;;;13.45;72.86
30598;BME280;17365;48.878;8.334;2023-05-03T08:25:01;100892.16;;;13.60;72.96
30598;BME280;17365;48.878;8.334;2023-05-03T08:27:28;100889.41;;;13.14;73.74
30598;BME280;17365;48.878;8.334;2023-05-03T08:29:53;100901.75;;;13.73;73.16
30598;BME280;17365;48.878;8.334;2023-05-03T08:32:18;100894.75;;;13.57;72.93
30598;BME280;17365;48.878;8.334;2023-05-03T08:34:46;100905.25;;;13.95;71.52
30598;BME280;17365;48.878;8.334;2023-05-03T08:37:11;100893.06;;;13.95;71.41
30598;BME280;17365;48.878;8.334;2023-05-03T08:39:36;100892.19;;;14.01;71.49
30598;BME280;17365;48.878;8.334;2023-05-03T08:42:10;100898.28;;;14.02;70.39
30598;BME280;17365;48.878;8.334;2023-05-03T08:44:36;100897.41;;;14.15;70.40
30598;BME280;17365;48.878;8.334;2023-05-03T08:47:05;100898.28;;;14.21;69.99
30598;BME280;17365;48.878;8.334;2023-05-03T08:49:31;100893.91;;;14.37;69.39
30598;BME280;17365;48.878;8.334;2023-05-03T08:51:57;100891.31;;;14.46;68.64
30598;BME280;17365;48.878;8.334;2023-05-03T08:54:23;100894.81;;;14.48;68.09
30598;BME280;17365;48.878;8.334;2023-05-03T08:56:49;100880.88;;;14.23;69.11
30598;BME280;17365;48.878;8.334;2023-05-03T08:59:14;100884.34;;;14.44;69.50
30598;BME280;17365;48.878;8.334;2023-05-03T09:01:41;100882.63;;;14.53;69.35
30598;BME280;17365;48.878;8.334;2023-05-03T09:04:07;100878.25;;;14.42;68.88
30598;BME280;17365;48.878;8.334;2023-05-03T09:06:33;100880.03;;;14.52;68.93
30598;BME280;17365;48.878;8.334;2023-05-03T09:08:59;100887.84;;;14.03;69.57
30598;BME280;17365;48.878;8.334;2023-05-03T09:13:50;100883.44;;;14.77;68.59
30598;BME280;17365;48.878;8.334;2023-05-03T09:16:25;100896.50;;;14.77;68.68
30598;BME280;17365;48.878;8.334;2023-05-03T09:21:22;100881.59;;;15.06;67.34
30598;BME280;17365;48.878;8.334;2023-05-03T09:23:47;100886.00;;;14.89;67.05
30598;BME280;17365;48.878;8.334;2023-05-03T09:26:17;100885.91;;;15.10;66.87
30598;BME280;17365;48.878;8.334;2023-05-03T09:28:51;100881.63;;;14.93;67.77
30598;BME280;17365;48.878;8.334;2023-05-03T09:31:16;100887.59;;;15.30;66.27
30598;BME280;17365;48.878;8.334;2023-05-03T09:33:42;100883.31;;;15.03;66.57
30598;BME280;17365;48.878;8.334;2023-05-03T09:36:07;100881.69;;;14.77;68.20
30598;BME280;17365;48.878;8.334;2023-05-03T09:38:33;100871.94;;;15.14;67.24
30598;BME280;17365;48.878;8.334;2023-05-03T09:40:59;100882.31;;;15.33;65.92
30598;BME280;17365;48.878;8.334;2023-05-03T09:43:25;100878.78;;;15.40;65.23
30598;BME280;17365;48.878;8.334;2023-05-03T09:45:51;100865.63;;;15.61;64.63
30598;BME280;17365;48.878;8.334;2023-05-03T09:48:16;100877.13;;;15.25;64.67
30598;BME280;17365;48.878;8.334;2023-05-03T09:50:42;100878.78;;;15.40;64.04
30598;BME280;17365;48.878;8.334;2023-05-03T09:53:08;100873.53;;;15.46;64.48
30598;BME280;17365;48.878;8.334;2023-05-03T09:55:37;100874.38;;;15.48;63.58
30598;BME280;17365;48.878;8.334;2023-05-03T09:58:03;100870.72;;;15.81;63.27
30598;BME280;17365;48.878;8.334;2023-05-03T10:00:32;100868.25;;;15.57;63.29
30598;BME280;17365;48.878;8.334;2023-05-03T10:02:58;100871.47;;;15.98;62.41
30598;BME280;17365;48.878;8.334;2023-05-03T10:05:25;100856.69;;;15.91;62.11
30598;BME280;17365;48.878;8.334;2023-05-03T10:07:51;100857.34;;;16.16;61.46
30598;BME280;17365;48.878;8.334;2023-05-03T10:10:16;100860.78;;;16.21;60.43
30598;BME280;17365;48.878;8.334;2023-05-03T10:12:42;100871.31;;;16.15;61.76
30598;BME280;17365;48.878;8.334;2023-05-03T10:15:08;100853.78;;;16.23;61.22
30598;BME280;17365;48.878;8.334;2023-05-03T10:17:36;100858.97;;;16.31;60.79
30598;BME280;17365;48.878;8.334;2023-05-03T10:20:11;100850.25;;;16.27;59.89
30598;BME280;17365;48.878;8.334;2023-05-03T10:25:23;100844.69;;;16.58;59.21
30598;BME280;17365;48.878;8.334;2023-05-03T10:27:51;100840.38;;;16.55;59.40
30598;BME280;17365;48.878;8.334;2023-05-03T10:30:25;100842.88;;;16.63;58.87
30598;BME280;17365;48.878;8.334;2023-05-03T10:32:52;100837.78;;;16.51;59.00
30598;BME280;17365;48.878;8.334;2023-05-03T10:35:17;100821.91;;;16.66;58.06
30598;BME280;17365;48.878;8.334;2023-05-03T10:37:43;100827.16;;;16.66;56.64
30598;BME280;17365;48.878;8.334;2023-05-03T10:40:16;100829.53;;;16.87;57.72
30598;BME280;17365;48.878;8.334;2023-05-03T10:42:43;100815.63;;;16.81;57.50
30598;BME280;17365;48.878;8.334;2023-05-03T10:45:08;100813.00;;;16.82;57.63
30598;BME280;17365;48.878;8.334;2023-05-03T10:47:36;100816.31;;;16.95;57.06
30598;BME280;17365;48.878;8.334;2023-05-03T10:55:09;100797.69;;;17.16;56.69
30598;BME280;17365;48.878;8.334;2023-05-03T10:57:36;100801.38;;;17.62;55.99
30598;BME280;17365;48.878;8.334;2023-05-03T11:00:01;100794.28;;;17.70;54.84
30598;BME280;17365;48.878;8.334;2023-05-03T11:02:31;100795.91;;;17.75;54.01
30598;BME280;17365;48.878;8.334;2023-05-03T11:04:58;100803.03;;;17.66;53.91
30598;BME280;17365;48.878;8.334;2023-05-03T11:07:27;100800.03;;;17.36;54.19
30598;BME280;17365;48.878;8.334;2023-05-03T11:09:53;100798.78;;;17.60;54.17
30598;BME280;17365;48.878;8.334;2023-05-03T11:12:19;100804.28;;;17.45;53.81
30598;BME280;17365;48.878;8.334;2023-05-03T11:14:44;100788.91;;;17.19;53.61
30598;BME280;17365;48.878;8.334;2023-05-03T11:17:10;100795.56;;;17.41;54.21
30598;BME280;17365;48.878;8.334;2023-05-03T11:19:35;100796.53;;;17.36;54.86
30598;BME280;17365;48.878;8.334;2023-05-03T11:22:00;100789.47;;;17.39;55.18
30598;BME280;17365;48.878;8.334;2023-05-03T11:24:26;100795.06;;;17.75;52.65
30598;BME280;17365;48.878;8.334;2023-05-03T11:26:51;100787.81;;;17.89;51.66
30598;BME280;17365;48.878;8.334;2023-05-03T11:29:16;100780.28;;;17.68;53.68
30598;BME280;17365;48.878;8.334;2023-05-03T11:31:42;100771.47;;;17.73;53.93
30598;BME280;17365;48.878;8.334;2023-05-03T11:34:08;100774.13;;;17.72;51.86
30598;BME280;17365;48.878;8.334;2023-05-03T11:36:34;100770.84;;;17.58;52.42
30598;BME280;17365;48.878;8.334;2023-05-03T11:38:59;100771.22;;;17.87;52.18
30598;BME280;17365;48.878;8.334;2023-05-03T11:41:24;100772.28;;;17.75;51.13
30598;BME280;17365;48.878;8.334;2023-05-03T11:43:51;100775.13;;;18.14;50.79
30598;BME280;17365;48.878;8.334;2023-05-03T11:46:22;100761.19;;;18.09;50.04
30598;BME280;17365;48.878;8.334;2023-05-03T11:48:48;100769.88;;;18.14;50.00
30598;BME280;17365;48.878;8.334;2023-05-03T11:51:14;100788.31;;;18.10;50.01
30598;BME280;17365;48.878;8.334;2023-05-03T11:53:39;100756.72;;;18.16;49.87
30598;BME280;17365;48.878;8.334;2023-05-03T11:56:06;100773.41;;;18.13;50.99
30598;BME280;17365;48.878;8.334;2023-05-03T11:58:31;100752.94;;;18.29;50.85
30598;BME280;17365;48.878;8.334;2023-05-03T12:00:57;100753.78;;;18.31;52.31
30598;BME280;17365;48.878;8.334;2023-05-03T12:03:23;100755.34;;;18.40;51.87
30598;BME280;17365;48.878;8.334;2023-05-03T12:05:49;100749.69;;;18.16;51.44
30598;BME280;17365;48.878;8.334;2023-05-03T12:08:15;100735.47;;;18.28;50.29
30598;BME280;17365;48.878;8.334;2023-05-03T12:10:42;100741.88;;;18.12;50.98
30598;BME280;17365;48.878;8.334;2023-05-03T12:13:08;100756.91;;;18.05;51.32
30598;BME280;17365;48.878;8.334;2023-05-03T12:15:34;100737.97;;;18.32;51.27
30598;BME280;17365;48.878;8.334;2023-05-03T12:18:03;100739.06;;;18.24;49.97
30598;BME280;17365;48.878;8.334;2023-05-03T12:20:28;100742.66;;;18.61;50.52
30598;BME280;17365;48.878;8.334;2023-05-03T12:22:59;100736.50;;;18.62;51.17
30598;BME280;17365;48.878;8.334;2023-05-03T12:25:25;100730.50;;;18.57;50.04
30598;BME280;17365;48.878;8.334;2023-05-03T12:27:51;100724.22;;;18.65;49.00
30598;BME280;17365;48.878;8.334;2023-05-03T12:30:16;100725.00;;;18.70;49.44
30598;BME280;17365;48.878;8.334;2023-05-03T12:32:42;100713.75;;;18.61;48.77
30598;BME280;17365;48.878;8.334;2023-05-03T12:35:07;100723.25;;;18.69;49.87
30598;BME280;17365;48.878;8.334;2023-05-03T12:37:33;100724.25;;;18.61;48.02
30598;BME280;17365;48.878;8.334;2023-05-03T12:39:58;100724.13;;;18.68;48.90
30598;BME280;17365;48.878;8.334;2023-05-03T12:42:23;100723.22;;;18.70;49.29
30598;BME280;17365;48.878;8.334;2023-05-03T12:44:50;100719.59;;;18.76;49.88
30598;BME280;17365;48.878;8.334;2023-05-03T12:47:15;100710.22;;;18.64;49.16
30598;BME280;17365;48.878;8.334;2023-05-03T12:49:40;100716.56;;;18.94;47.78
30598;BME280;17365;48.878;8.334;2023-05-03T12:52:05;100708.63;;;18.96;47.74
30598;BME280;17365;48.878;8.334;2023-05-03T12:54:32;100699.34;;;18.81;48.71
30598;BME280;17365;48.878;8.334;2023-05-03T12:56:57;100699.09;;;18.90;48.51
30598;BME280;17365;48.878;8.334;2023-05-03T12:59:23;100691.38;;;18.84;49.20
30598;BME280;17365;48.878;8.334;2023-05-03T13:01:49;100692.59;;;19.06;48.71
30598;BME280;17365;48.878;8.334;2023-05-03T13:04:14;100686.63;;;19.00;47.93
30598;BME280;17365;48.878;8.334;2023-05-03T13:06:39;100673.03;;;19.18;47.90
30598;BME280;17365;48.878;8.334;2023-05-03T13:09:05;100676.94;;;19.36;47.08